Time;durP1;ratioP1;P1;durP2;ratioP2;P2;SDS_P1;SDS_P2;PMS_P1;PMS_P2;Temp;Humidity;BMP_temperature;BMP_pressure;BME280_temperature;BME280_humidity;BME280_pressure;Samples;Min_cycle;Max_cycle;Signal;HPM_P1;HPM_P2
2022/03/25 00:01:37;;;;;;;5.73;4.00;;;;;;;6.71;39.70;102672.22;4969959;28;97273;-81
2022/03/25 00:04:03;;;;;;;6.70;4.57;;;;;;;6.65;39.57;102654.75;4967110;28;96943;-82
2022/03/25 00:06:28;;;;;;;6.13;4.63;;;;;;;6.61;39.92;102667.69;4954212;28;98525;-81
2022/03/25 00:08:53;;;;;;;11.23;5.23;;;;;;;6.58;40.00;102663.84;4965939;28;96712;-81
2022/03/25 00:11:19;;;;;;;6.33;4.43;;;;;;;6.54;39.59;102662.34;4963008;28;96993;-82
2022/03/25 00:13:44;;;;;;;8.03;5.10;;;;;;;6.52;39.88;102659.25;4964374;28;96781;-82
2022/03/25 00:16:09;;;;;;;7.70;4.97;;;;;;;6.47;39.58;102665.19;4968520;28;97453;-82
2022/03/25 00:18:35;;;;;;;7.77;4.53;;;;;;;6.44;39.87;102676.97;4967177;28;98437;-81
2022/03/25 00:21:00;;;;;;;9.97;5.00;;;;;;;6.38;40.04;102662.19;4968068;28;96921;-82
2022/03/25 00:23:26;;;;;;;8.50;4.97;;;;;;;6.32;40.13;102653.69;4963765;28;96863;-82
2022/03/25 00:25:52;;;;;;;6.20;3.97;;;;;;;6.31;39.84;102657.59;4965381;28;98337;-82
2022/03/25 00:28:17;;;;;;;7.80;4.00;;;;;;;6.29;40.30;102659.97;4967274;28;97302;-82
2022/03/25 00:30:43;;;;;;;6.67;4.37;;;;;;;6.21;40.26;102657.78;4965676;28;96808;-82
2022/03/25 00:33:09;;;;;;;6.30;4.33;;;;;;;6.20;40.05;102667.94;4964158;28;97373;-81
2022/03/25 00:35:35;;;;;;;7.27;3.87;;;;;;;6.13;40.51;102659.06;4963682;28;96742;-81
2022/03/25 00:38:00;;;;;;;6.83;4.40;;;;;;;6.07;40.41;102654.06;4964593;28;99604;-82
2022/03/25 00:40:26;;;;;;;7.10;4.70;;;;;;;6.09;40.46;102677.47;4965185;28;97079;-82
2022/03/25 00:42:51;;;;;;;6.33;4.40;;;;;;;6.03;40.41;102664.25;4959553;28;96965;-82
2022/03/25 00:45:17;;;;;;;8.57;4.10;;;;;;;5.98;40.82;102675.66;4963723;28;97917;-82
2022/03/25 00:47:43;;;;;;;7.57;4.20;;;;;;;5.96;40.47;102669.06;4965441;28;96976;-82
2022/03/25 00:50:10;;;;;;;7.97;4.87;;;;;;;5.96;40.99;102656.16;4962125;28;97268;-82
2022/03/25 00:52:36;;;;;;;6.13;4.30;;;;;;;5.91;40.64;102650.41;4964701;28;96975;-81
2022/03/25 00:55:02;;;;;;;8.70;4.57;;;;;;;5.85;40.97;102674.66;4962141;28;99657;-81
2022/03/25 00:57:27;;;;;;;6.37;4.30;;;;;;;5.83;41.09;102657.13;4962121;28;99487;-82
2022/03/25 00:59:53;;;;;;;10.53;5.10;;;;;;;5.79;40.98;102651.69;4963760;28;97019;-81
2022/03/25 01:02:19;;;;;;;4.40;3.50;;;;;;;5.76;41.07;102649.00;4964156;28;96836;-82
2022/03/25 01:04:45;;;;;;;8.57;5.00;;;;;;;5.71;41.24;102657.66;4974226;28;99850;-81
2022/03/25 01:07:10;;;;;;;5.17;4.17;;;;;;;5.71;41.25;102647.50;4965392;28;97714;-82
2022/03/25 01:09:36;;;;;;;7.60;4.30;;;;;;;5.69;41.35;102643.63;4963704;28;96818;-82
2022/03/25 01:12:02;;;;;;;8.80;4.90;;;;;;;5.67;41.54;102649.50;4964141;28;96818;-81
2022/03/25 01:14:27;;;;;;;5.87;4.10;;;;;;;5.64;41.29;102663.19;4962526;28;98593;-83
2022/03/25 01:16:53;;;;;;;6.33;3.97;;;;;;;5.61;41.67;102648.44;4958153;28;98258;-82
2022/03/25 01:19:20;;;;;;;6.63;4.40;;;;;;;5.58;41.71;102643.78;4963093;28;98597;-82
2022/03/25 01:21:46;;;;;;;7.10;4.50;;;;;;;5.54;41.71;102648.50;4963661;28;97326;-82
2022/03/25 01:24:12;;;;;;;7.20;4.43;;;;;;;5.49;41.80;102646.22;4961906;28;99454;-82
2022/03/25 01:26:39;;;;;;;5.57;4.07;;;;;;;5.47;41.90;102647.81;4962220;28;100465;-82
2022/03/25 01:29:05;;;;;;;6.47;4.00;;;;;;;5.46;41.81;102646.28;4963961;28;96850;-82
2022/03/25 01:31:32;;;;;;;8.83;4.57;;;;;;;5.41;41.74;102652.94;4964029;28;96954;-82
2022/03/25 01:33:58;;;;;;;4.63;4.13;;;;;;;5.41;41.68;102661.16;4963737;28;96946;-82
2022/03/25 01:36:23;;;;;;;7.97;4.90;;;;;;;5.41;41.68;102661.16;4964524;28;97097;-82
2022/03/25 01:38:48;;;;;;;8.60;5.37;;;;;;;5.38;41.89;102647.50;4965576;28;97194;-83
2022/03/25 01:41:18;;;;;;;7.90;5.03;;;;;;;5.33;42.29;102665.09;4965511;28;96921;-82
2022/03/25 01:43:52;;;;;;;9.00;5.40;;;;;;;5.29;42.57;102664.38;4964557;28;96903;-82
2022/03/25 01:46:18;;;;;;;8.23;4.70;;;;;;;5.23;42.17;102655.09;4963437;28;100811;-82
2022/03/25 01:48:43;;;;;;;7.70;5.70;;;;;;;5.21;42.19;102660.19;4961927;28;97010;-82
2022/03/25 01:51:08;;;;;;;7.87;5.50;;;;;;;5.16;42.00;102655.16;4955851;28;96697;-82
2022/03/25 01:53:34;;;;;;;8.87;4.83;;;;;;;5.16;41.96;102674.25;4963192;28;97088;-82
2022/03/25 01:56:02;;;;;;;6.10;5.33;;;;;;;5.14;42.20;102660.25;4962022;28;98793;-82
2022/03/25 01:58:30;;;;;;;8.00;4.50;;;;;;;5.05;42.51;102657.22;4964213;28;96889;-82
2022/03/25 02:00:57;;;;;;;7.47;5.03;;;;;;;5.02;42.25;102661.53;4963877;28;96817;-82
2022/03/25 02:03:22;;;;;;;8.97;4.70;;;;;;;5.00;42.24;102679.50;4958714;28;98058;-82
2022/03/25 02:05:49;;;;;;;6.50;4.27;;;;;;;5.00;42.11;102652.22;4966063;28;96853;-82
2022/03/25 02:08:15;;;;;;;7.63;4.80;;;;;;;4.98;42.09;102660.78;4969969;28;96809;-82
2022/03/25 02:10:41;;;;;;;6.00;4.37;;;;;;;4.92;42.25;102653.47;4968871;28;96956;-82
2022/03/25 02:13:08;;;;;;;7.43;5.10;;;;;;;4.88;42.50;102656.22;4971667;28;97200;-82
2022/03/25 02:15:41;;;;;;;9.67;4.83;;;;;;;4.87;42.51;102660.13;4971220;28;97397;-81
2022/03/25 02:18:12;;;;;;;6.77;4.20;;;;;;;4.84;42.67;102650.03;4964511;28;97050;-83
2022/03/25 02:20:38;;;;;;;7.13;4.70;;;;;;;4.79;42.52;102661.38;4965017;28;97284;-80
2022/03/25 02:23:05;;;;;;;9.93;4.93;;;;;;;4.73;42.65;102651.31;4970980;28;98085;-81
2022/03/25 02:25:31;;;;;;;9.20;4.40;;;;;;;4.73;42.55;102676.63;4962227;28;97838;-83
2022/03/25 02:27:59;;;;;;;8.10;4.30;;;;;;;4.69;42.86;102664.19;4968591;28;96989;-82
2022/03/25 02:30:26;;;;;;;8.20;4.63;;;;;;;4.67;42.70;102658.38;4965437;28;96982;-82
2022/03/25 02:32:53;;;;;;;9.33;4.83;;;;;;;4.66;42.63;102654.06;4964057;28;97203;-82
2022/03/25 02:35:18;;;;;;;6.30;4.37;;;;;;;4.57;42.73;102647.16;4970913;28;97384;-82
2022/03/25 02:37:44;;;;;;;6.67;4.03;;;;;;;4.61;42.77;102663.47;4967643;28;97236;-82
2022/03/25 02:40:11;;;;;;;7.30;4.70;;;;;;;4.55;43.09;102649.50;4970383;28;96922;-82
2022/03/25 02:42:36;;;;;;;7.27;4.00;;;;;;;4.50;43.14;102663.56;4988371;28;97287;-82
2022/03/25 02:45:03;;;;;;;7.87;4.67;;;;;;;4.51;43.17;102665.13;4970080;28;99620;-82
2022/03/25 02:47:29;;;;;;;10.67;4.20;;;;;;;4.49;43.14;102662.03;4968834;28;97458;-82
2022/03/25 02:49:54;;;;;;;7.00;4.80;;;;;;;4.48;43.10;102655.00;4968041;28;97088;-82
2022/03/25 02:52:19;;;;;;;5.77;4.60;;;;;;;4.45;43.11;102661.28;4970312;28;97194;-81
2022/03/25 02:54:45;;;;;;;6.30;4.33;;;;;;;4.41;43.22;102671.41;4969595;28;101051;-81
2022/03/25 02:57:11;;;;;;;14.50;5.23;;;;;;;4.36;43.38;102652.00;4977014;28;97355;-82
2022/03/25 02:59:36;;;;;;;8.03;4.63;;;;;;;4.33;43.48;102653.56;4963139;28;97055;-82
2022/03/25 03:02:02;;;;;;;12.67;4.80;;;;;;;4.33;43.64;102661.72;4965287;28;98821;-81
2022/03/25 03:04:28;;;;;;;8.83;4.80;;;;;;;4.33;43.37;102667.19;4968624;28;99656;-81
2022/03/25 03:06:54;;;;;;;9.30;5.17;;;;;;;4.32;43.57;102660.19;4970084;28;97366;-82
2022/03/25 03:09:19;;;;;;;8.90;5.17;;;;;;;4.30;43.65;102670.69;4968156;28;97051;-82
2022/03/25 03:11:44;;;;;;;7.70;5.37;;;;;;;4.26;43.79;102659.06;4965501;28;99592;-82
2022/03/25 03:14:10;;;;;;;6.93;4.83;;;;;;;4.25;43.95;102659.47;4962988;28;97521;-82
2022/03/25 03:16:36;;;;;;;6.90;5.20;;;;;;;4.22;43.75;102671.94;4968900;28;98508;-81
2022/03/25 03:19:01;;;;;;;9.80;4.80;;;;;;;4.22;43.86;102658.31;4967001;28;97212;-82
2022/03/25 03:21:29;;;;;;;10.20;5.03;;;;;;;4.22;44.03;102682.81;4966288;28;97666;-82
2022/03/25 03:23:55;;;;;;;8.30;4.60;;;;;;;4.20;43.89;102655.22;4971470;28;99396;-82
2022/03/25 03:26:20;;;;;;;6.67;4.27;;;;;;;4.17;43.87;102677.78;4967055;28;97092;-83
2022/03/25 03:28:46;;;;;;;10.73;5.30;;;;;;;4.16;44.06;102654.47;4983919;28;97015;-82
2022/03/25 03:31:12;;;;;;;7.17;4.97;;;;;;;4.17;44.09;102664.16;4965944;28;98902;-82
2022/03/25 03:33:38;;;;;;;11.23;5.37;;;;;;;4.14;43.87;102661.47;4966702;28;97248;-82
2022/03/25 03:36:04;;;;;;;7.30;4.60;;;;;;;4.12;44.09;102670.06;4965945;28;97274;-82
2022/03/25 03:38:29;;;;;;;8.23;4.60;;;;;;;4.09;44.14;102659.16;4967114;28;96873;-82
2022/03/25 03:40:55;;;;;;;7.00;4.53;;;;;;;4.05;44.11;102672.03;4978273;28;98989;-82
2022/03/25 03:43:20;;;;;;;8.27;4.37;;;;;;;4.06;44.34;102660.75;4964807;28;99619;-83
2022/03/25 03:45:46;;;;;;;7.43;4.90;;;;;;;4.02;44.17;102657.25;4966413;28;96792;-82
2022/03/25 03:48:12;;;;;;;8.30;5.17;;;;;;;4.02;44.34;102675.56;4961476;28;97018;-83
2022/03/25 03:50:38;;;;;;;10.10;5.60;;;;;;;4.00;44.36;102662.31;4959254;28;98177;-82
2022/03/25 03:53:04;;;;;;;11.47;5.93;;;;;;;3.99;44.52;102660.78;4956552;28;99420;-81
2022/03/25 03:55:30;;;;;;;8.77;5.20;;;;;;;3.98;44.43;102666.63;4963870;28;96805;-83
2022/03/25 03:57:56;;;;;;;9.77;5.37;;;;;;;3.93;44.50;102659.66;4961866;28;97110;-82
2022/03/25 04:00:24;;;;;;;10.73;5.33;;;;;;;3.87;44.59;102644.88;4963535;28;97250;-83
2022/03/25 04:02:50;;;;;;;8.40;5.30;;;;;;;3.89;44.52;102660.84;4960535;28;98021;-82
2022/03/25 04:05:16;;;;;;;10.33;5.33;;;;;;;3.85;44.77;102660.84;4966080;28;96871;-82
2022/03/25 04:07:44;;;;;;;5.83;4.30;;;;;;;3.84;44.67;102653.88;4982375;28;96917;-83
2022/03/25 04:10:11;;;;;;;5.20;4.23;;;;;;;3.85;44.66;102679.13;4966513;28;97176;-82
2022/03/25 04:12:36;;;;;;;9.30;5.80;;;;;;;3.82;44.78;102669.84;4973928;28;97246;-82
2022/03/25 04:15:09;;;;;;;10.30;6.27;;;;;;;3.75;44.70;102659.75;4975131;28;96826;-83
2022/03/25 04:17:36;;;;;;;7.43;4.70;;;;;;;3.75;44.89;102678.81;4975610;28;96869;-83
2022/03/25 04:20:14;;;;;;;7.47;4.90;;;;;;;3.74;45.88;102665.56;4977527;28;96616;-83
2022/03/25 04:22:39;;;;;;;9.10;5.33;;;;;;;3.72;44.85;102657.03;4992560;28;102905;-83
2022/03/25 04:25:07;;;;;;;8.73;4.90;;;;;;;3.68;44.93;102667.16;4974531;28;96565;-82
2022/03/25 04:27:33;;;;;;;12.80;5.90;;;;;;;3.64;44.81;102667.19;4971770;28;96613;-82
2022/03/25 04:29:59;;;;;;;9.73;4.93;;;;;;;3.58;44.97;102671.47;4967114;28;96836;-82
2022/03/25 04:32:24;;;;;;;9.20;5.50;;;;;;;3.58;45.02;102668.00;4970074;28;97095;-82
2022/03/25 04:34:50;;;;;;;10.27;5.20;;;;;;;3.60;45.07;102660.19;4974787;28;96741;-82
2022/03/25 04:37:15;;;;;;;10.03;5.50;;;;;;;3.59;45.14;102661.34;4962175;28;96794;-83
2022/03/25 04:39:41;;;;;;;11.30;4.40;;;;;;;3.57;45.21;102686.25;4966282;28;96814;-82
2022/03/25 04:42:09;;;;;;;13.00;5.60;;;;;;;3.56;44.95;102656.72;4966232;28;99843;-84
2022/03/25 04:44:35;;;;;;;8.40;4.80;;;;;;;3.46;45.12;102679.28;4959535;28;96994;-83
2022/03/25 04:47:01;;;;;;;6.40;4.70;;;;;;;3.49;45.30;102657.53;4956662;28;97261;-83
2022/03/25 04:49:26;;;;;;;8.03;4.93;;;;;;;3.45;45.26;102691.34;4961792;28;97116;-82
2022/03/25 04:51:51;;;;;;;7.10;4.50;;;;;;;3.42;45.31;102701.06;4964301;28;98154;-82
2022/03/25 04:54:18;;;;;;;7.90;4.70;;;;;;;3.48;45.33;102682.38;4961497;28;118175;-82
2022/03/25 04:56:46;;;;;;;9.20;5.23;;;;;;;3.46;45.62;102662.97;4977821;28;97103;-82
2022/03/25 04:59:12;;;;;;;8.80;5.07;;;;;;;3.46;45.35;102666.47;4962683;28;98545;-82
2022/03/25 05:01:37;;;;;;;9.17;5.10;;;;;;;3.43;45.46;102677.38;4964739;28;97272;-82
2022/03/25 05:04:03;;;;;;;10.80;4.73;;;;;;;3.36;45.30;102666.50;4964131;28;97155;-82
2022/03/25 05:06:28;;;;;;;13.50;5.47;;;;;;;3.32;45.53;102668.47;4964328;28;96874;-83
2022/03/25 05:08:53;;;;;;;7.17;4.70;;;;;;;3.40;45.46;102678.16;4967530;28;97470;-83
2022/03/25 05:11:19;;;;;;;11.50;5.20;;;;;;;3.40;45.40;102672.69;4976082;28;98565;-82
2022/03/25 05:13:44;;;;;;;8.50;5.50;;;;;;;3.38;45.54;102685.94;4962820;28;96986;-82
2022/03/25 05:16:29;;;;;;;7.90;5.30;;;;;;;3.37;45.93;102678.91;4942092;28;97183;-83
2022/03/25 05:18:56;;;;;;;6.33;4.90;;;;;;;3.31;45.54;102691.38;4917190;28;101370;-82
2022/03/25 05:21:21;;;;;;;6.67;5.20;;;;;;;3.32;45.49;102695.66;4968931;28;98856;-82
2022/03/25 05:23:47;;;;;;;8.93;5.17;;;;;;;3.34;45.57;102677.00;4961520;28;96898;-83
2022/03/25 05:26:13;;;;;;;9.13;5.40;;;;;;;3.33;45.66;102686.31;4961356;28;99943;-83
2022/03/25 05:28:38;;;;;;;6.70;4.43;;;;;;;3.25;45.61;102699.19;4963966;28;98696;-83
2022/03/25 05:31:04;;;;;;;8.83;5.13;;;;;;;3.22;45.84;102723.63;4967988;28;98501;-83
2022/03/25 05:33:29;;;;;;;5.40;4.47;;;;;;;3.21;45.96;102697.63;4961551;28;97710;-83
2022/03/25 05:35:54;;;;;;;10.43;5.20;;;;;;;3.24;46.06;102716.66;4957740;28;97365;-83
2022/03/25 05:38:20;;;;;;;11.63;5.03;;;;;;;3.27;46.09;102712.38;4961542;28;96881;-83
2022/03/25 05:40:45;;;;;;;7.10;4.70;;;;;;;3.28;45.82;102695.66;4958235;28;97138;-82
2022/03/25 05:43:11;;;;;;;7.50;5.00;;;;;;;3.31;46.14;102710.41;4963019;28;96924;-82
2022/03/25 05:45:36;;;;;;;9.03;5.40;;;;;;;3.32;46.19;102717.44;4964456;28;97371;-82
2022/03/25 05:48:02;;;;;;;20.07;6.20;;;;;;;3.35;46.31;102720.13;4961459;28;98705;-82
2022/03/25 05:50:28;;;;;;;7.53;5.60;;;;;;;3.36;45.99;102716.25;4963244;28;98068;-83
2022/03/25 05:52:53;;;;;;;7.43;5.13;;;;;;;3.41;45.91;102720.50;4972587;28;97279;-83
2022/03/25 05:55:19;;;;;;;8.60;5.30;;;;;;;3.44;45.93;102717.00;4975973;28;100062;-83
2022/03/25 05:57:45;;;;;;;7.80;5.30;;;;;;;3.45;46.14;102729.44;4965213;28;96794;-83
2022/03/25 06:00:13;;;;;;;9.27;5.20;;;;;;;3.47;45.91;102725.13;4962448;28;96852;-83
2022/03/25 06:02:40;;;;;;;6.63;4.80;;;;;;;3.52;45.88;102718.53;4962506;28;98008;-83
2022/03/25 06:05:06;;;;;;;7.30;4.63;;;;;;;3.53;45.73;102726.31;4965158;28;96915;-83
2022/03/25 06:07:38;;;;;;;7.93;5.20;;;;;;;3.57;46.41;102737.19;4956905;28;97606;-83
2022/03/25 06:10:08;;;;;;;7.20;5.33;;;;;;;3.60;46.34;102729.00;4962170;28;96897;-81
2022/03/25 06:12:34;;;;;;;7.97;5.13;;;;;;;3.63;46.19;102724.72;4963737;28;97197;-82
2022/03/25 06:14:59;;;;;;;8.60;4.97;;;;;;;3.66;46.27;102734.81;4962432;28;96821;-82
2022/03/25 06:17:26;;;;;;;9.17;5.33;;;;;;;3.72;46.19;102735.97;4960430;28;98527;-82
2022/03/25 06:19:52;;;;;;;6.27;4.30;;;;;;;3.75;46.18;102730.53;4968795;28;98109;-82
2022/03/25 06:22:18;;;;;;;14.50;6.10;;;;;;;3.79;46.14;102733.22;4964917;28;96997;-82
2022/03/25 06:24:43;;;;;;;7.07;5.03;;;;;;;3.83;46.38;102717.66;4965271;28;96510;-81
2022/03/25 06:27:10;;;;;;;8.60;4.70;;;;;;;3.91;46.06;102726.56;4962716;28;97353;-82
2022/03/25 06:29:37;;;;;;;6.80;4.50;;;;;;;3.91;46.31;102732.78;4961904;28;98021;-82
2022/03/25 06:32:07;;;;;;;10.43;4.40;;;;;;;4.00;46.00;102726.94;4963409;28;96835;-81
2022/03/25 06:34:33;;;;;;;8.10;5.17;;;;;;;4.05;46.06;102748.28;4964133;28;97260;-81
2022/03/25 06:36:58;;;;;;;11.50;5.40;;;;;;;4.12;46.54;102731.91;4962810;28;99560;-82
2022/03/25 06:39:24;;;;;;;10.13;6.03;;;;;;;4.13;46.30;102728.78;4962880;28;97462;-83
2022/03/25 06:41:49;;;;;;;9.60;5.47;;;;;;;4.23;46.29;102735.38;4961487;28;97464;-82
2022/03/25 06:44:16;;;;;;;11.33;5.60;;;;;;;4.29;46.30;102745.44;4962466;28;96870;-83
2022/03/25 06:46:41;;;;;;;10.90;5.23;;;;;;;4.36;46.14;102755.53;4963914;28;97001;-81
2022/03/25 06:49:08;;;;;;;10.60;4.73;;;;;;;4.44;46.31;102732.50;4963872;28;98430;-81
2022/03/25 06:51:33;;;;;;;7.00;4.27;;;;;;;4.51;46.32;102738.72;4961782;28;97011;-83
2022/03/25 06:53:59;;;;;;;7.67;4.70;;;;;;;4.59;46.40;102741.38;4965523;28;96781;-83
2022/03/25 06:56:26;;;;;;;18.83;5.03;;;;;;;4.67;46.46;102738.22;4963287;28;96804;-82
2022/03/25 06:58:52;;;;;;;13.37;4.90;;;;;;;4.75;46.23;102742.44;4962479;28;98657;-81
2022/03/25 07:01:18;;;;;;;5.63;4.70;;;;;;;4.85;46.38;102766.09;4964247;28;96778;-81
2022/03/25 07:03:43;;;;;;;9.10;6.00;;;;;;;4.96;46.45;102771.47;4966168;28;96869;-81
2022/03/25 07:06:09;;;;;;;10.40;5.50;;;;;;;5.04;46.43;102753.91;4960513;28;97607;-82
2022/03/25 07:08:35;;;;;;;10.40;5.80;;;;;;;5.14;46.15;102762.00;4965092;28;97395;-82
2022/03/25 07:11:02;;;;;;;8.57;5.30;;;;;;;5.23;46.26;102764.25;4970673;28;96885;-81
2022/03/25 07:13:28;;;;;;;8.00;5.63;;;;;;;5.29;46.21;102787.97;4965189;28;96947;-81
2022/03/25 07:15:54;;;;;;;7.30;4.80;;;;;;;5.41;46.41;102773.06;4962347;28;98358;-81
2022/03/25 07:18:20;;;;;;;10.03;5.27;;;;;;;5.51;46.47;102763.97;4962435;28;96934;-81
2022/03/25 07:20:45;;;;;;;7.40;5.03;;;;;;;5.62;46.40;102769.31;4965467;28;97193;-82
2022/03/25 07:23:11;;;;;;;11.23;6.43;;;;;;;5.71;46.24;102773.13;4967472;28;97380;-81
2022/03/25 07:25:37;;;;;;;12.43;6.40;;;;;;;5.81;46.27;102777.69;4965496;28;97667;-81
2022/03/25 07:28:02;;;;;;;11.07;5.77;;;;;;;5.90;46.23;102769.03;4964058;28;97661;-81
2022/03/25 07:30:28;;;;;;;8.10;4.87;;;;;;;6.01;46.15;102786.84;4964489;28;97009;-82
2022/03/25 07:32:53;;;;;;;8.73;6.00;;;;;;;6.03;46.37;102767.31;4965273;28;96928;-82
2022/03/25 07:35:19;;;;;;;9.03;5.40;;;;;;;6.22;46.13;102796.78;4965731;28;98618;-82
2022/03/25 07:37:45;;;;;;;10.83;5.60;;;;;;;6.35;45.92;102805.19;4981008;28;97751;-82
2022/03/25 07:40:12;;;;;;;11.50;6.50;;;;;;;6.50;46.35;102779.22;4970251;28;97000;-83
2022/03/25 07:42:39;;;;;;;7.33;5.37;;;;;;;6.62;45.95;102786.84;4965159;28;97285;-82
2022/03/25 07:45:08;;;;;;;7.87;5.97;;;;;;;6.76;45.88;102792.88;4967103;28;96720;-83
2022/03/25 07:47:35;;;;;;;12.77;6.17;;;;;;;6.92;46.03;102786.78;4965544;28;97377;-81
2022/03/25 07:50:00;;;;;;;9.50;5.83;;;;;;;7.06;46.19;102797.50;4963746;28;97461;-81
2022/03/25 07:52:26;;;;;;;10.03;5.43;;;;;;;7.18;46.20;102802.41;4974210;28;96837;-82
2022/03/25 07:54:51;;;;;;;9.23;5.67;;;;;;;7.32;46.15;102806.84;4964651;28;98313;-82
2022/03/25 07:57:17;;;;;;;7.30;5.20;;;;;;;7.50;46.24;102819.06;4962533;28;98106;-82
2022/03/25 07:59:42;;;;;;;12.57;6.53;;;;;;;7.65;46.39;102814.09;4968911;28;96809;-82
2022/03/25 08:02:08;;;;;;;9.30;5.97;;;;;;;7.84;46.04;102804.38;4964461;28;97496;-82
2022/03/25 08:04:33;;;;;;;14.13;6.50;;;;;;;8.00;46.12;102818.13;4963222;28;98246;-82
2022/03/25 08:06:59;;;;;;;9.07;5.60;;;;;;;8.16;46.06;102816.25;4966428;28;98865;-82
2022/03/25 08:09:24;;;;;;;7.13;5.80;;;;;;;8.28;46.30;102826.59;4982728;28;97065;-82
2022/03/25 08:11:49;;;;;;;10.50;6.57;;;;;;;8.51;46.30;102816.72;4966228;28;97004;-82
2022/03/25 08:14:17;;;;;;;7.90;5.53;;;;;;;8.68;46.32;102819.06;4966818;28;96802;-82
2022/03/25 08:16:44;;;;;;;13.50;5.97;;;;;;;8.87;46.32;102815.50;4965248;28;97239;-82
2022/03/25 08:19:10;;;;;;;12.90;6.67;;;;;;;9.02;46.08;102808.47;4964065;28;97110;-83
2022/03/25 08:21:36;;;;;;;9.07;6.43;;;;;;;9.24;45.74;102821.69;4961919;28;96966;-83
2022/03/25 08:29:29;;;;;;;10.93;6.73;;;;;;;9.94;45.00;102813.59;4963906;28;97268;-83
2022/03/25 08:31:54;;;;;;;11.10;6.63;;;;;;;10.21;45.12;102817.53;4963189;28;96888;-83
2022/03/25 08:34:21;;;;;;;17.33;6.63;;;;;;;10.48;44.89;102828.91;4962114;28;97464;-84
2022/03/25 08:36:48;;;;;;;11.33;6.83;;;;;;;10.74;44.45;102820.69;4967597;28;98207;-83
2022/03/25 08:39:14;;;;;;;12.30;7.53;;;;;;;11.03;44.85;102821.34;4961472;28;96842;-84
2022/03/25 08:41:40;;;;;;;10.50;6.60;;;;;;;11.30;44.17;102819.63;4964592;28;96746;-83
2022/03/25 08:44:06;;;;;;;14.60;7.20;;;;;;;11.65;44.28;102831.44;4963114;28;98791;-84
2022/03/25 08:46:34;;;;;;;10.73;6.80;;;;;;;12.00;44.16;102821.16;4964504;28;97632;-82
2022/03/25 08:49:00;;;;;;;10.90;6.27;;;;;;;12.36;43.45;102826.91;4965773;28;97031;-83
2022/03/25 08:51:26;;;;;;;11.40;6.77;;;;;;;12.71;42.98;102833.09;4964493;28;96918;-81
2022/03/25 08:53:52;;;;;;;8.40;5.30;;;;;;;13.06;42.74;102833.69;4973628;28;99940;-82
2022/03/25 08:56:19;;;;;;;8.57;5.77;;;;;;;13.40;42.76;102825.16;4961833;28;97499;-83
2022/03/25 08:58:44;;;;;;;8.10;5.40;;;;;;;13.71;41.88;102825.03;4963008;28;97716;-83
2022/03/25 09:01:10;;;;;;;9.90;5.57;;;;;;;13.97;41.48;102818.72;4964158;28;97166;-84
2022/03/25 09:03:35;;;;;;;11.87;5.97;;;;;;;14.26;40.68;102835.56;4964723;28;96968;-83
2022/03/25 09:06:01;;;;;;;8.83;5.40;;;;;;;14.53;41.23;102843.06;4958889;28;98611;-85
2022/03/25 09:08:26;;;;;;;8.70;5.70;;;;;;;14.80;40.55;102844.97;4958399;28;97717;-82
2022/03/25 09:10:53;;;;;;;8.03;4.90;;;;;;;15.07;39.89;102847.59;4967030;28;97368;-83
2022/03/25 09:13:19;;;;;;;10.50;5.77;;;;;;;15.31;39.58;102837.31;4965321;28;97955;-84
2022/03/25 09:15:45;;;;;;;10.27;6.10;;;;;;;15.55;39.09;102840.88;4964215;28;97401;-82
2022/03/25 09:18:10;;;;;;;9.43;6.60;;;;;;;15.74;38.52;102852.59;4963750;28;97160;-82
2022/03/25 09:20:36;;;;;;;10.47;5.73;;;;;;;15.94;38.47;102852.75;4966603;28;97515;-82
2022/03/25 09:23:01;;;;;;;13.67;6.70;;;;;;;16.05;37.86;102839.06;4961842;28;99129;-81
2022/03/25 09:25:27;;;;;;;9.57;5.40;;;;;;;16.23;38.08;102838.88;4953599;28;102702;-82
2022/03/25 09:27:53;;;;;;;9.47;6.20;;;;;;;16.44;37.67;102834.97;4963424;28;97199;-82
2022/03/25 09:30:18;;;;;;;8.40;4.67;;;;;;;16.60;37.02;102844.81;4962757;28;97114;-80
2022/03/25 09:32:44;;;;;;;7.70;4.97;;;;;;;16.72;37.23;102843.00;4960854;28;97976;-83
2022/03/25 09:35:09;;;;;;;8.00;5.37;;;;;;;16.88;36.60;102842.50;4966309;28;96963;-83
2022/03/25 09:37:38;;;;;;;9.70;6.23;;;;;;;17.03;36.29;102849.53;4965631;28;96901;-83
2022/03/25 09:40:07;;;;;;;12.07;5.93;;;;;;;17.13;36.13;102859.28;4968045;28;96899;-83
2022/03/25 09:42:33;;;;;;;10.20;6.30;;;;;;;17.30;36.02;102859.50;4966454;28;96896;-84
2022/03/25 09:45:00;;;;;;;9.33;5.50;;;;;;;17.45;35.73;102849.06;4958969;28;96884;-83
2022/03/25 09:47:25;;;;;;;11.13;6.07;;;;;;;17.59;35.26;102850.28;4963273;28;96963;-83
2022/03/25 09:49:52;;;;;;;8.93;5.57;;;;;;;17.71;35.40;102841.56;4966854;28;97122;-83
2022/03/25 09:52:21;;;;;;;10.77;5.93;;;;;;;17.85;34.92;102842.75;4968820;28;96838;-83
2022/03/25 09:54:46;;;;;;;8.87;6.40;;;;;;;17.90;34.87;102850.41;4962512;28;97301;-84
2022/03/25 09:57:11;;;;;;;11.97;7.00;;;;;;;17.94;34.58;102867.66;4960106;28;96789;-83
2022/03/25 09:59:37;;;;;;;9.13;6.17;;;;;;;17.97;34.77;102841.63;4966178;28;96944;-83
2022/03/25 10:02:03;;;;;;;15.33;7.80;;;;;;;18.00;34.62;102870.53;4970087;28;96748;-83
2022/03/25 10:04:42;;;;;;;12.10;6.70;;;;;;;18.15;33.86;102837.75;4961829;28;98695;-83
2022/03/25 10:07:30;;;;;;;10.83;6.40;;;;;;;18.26;32.91;102838.59;4959562;28;97924;-83
2022/03/25 10:10:17;;;;;;;14.73;8.90;;;;;;;18.32;33.49;102830.28;4959389;28;97116;-83
2022/03/25 10:12:45;;;;;;;14.07;9.10;;;;;;;18.30;34.55;102830.78;4964077;28;102428;-83
2022/03/25 10:15:16;;;;;;;15.43;9.80;;;;;;;18.36;33.67;102836.41;4956953;28;102069;-84
2022/03/25 10:17:52;;;;;;;16.40;9.07;;;;;;;18.41;33.69;102827.34;4985719;28;96803;-84
2022/03/25 10:20:22;;;;;;;16.60;9.27;;;;;;;18.41;34.65;102827.34;4963783;28;97446;-83
2022/03/25 10:22:57;;;;;;;15.20;8.87;;;;;;;18.53;33.29;102829.75;4960457;28;101234;-83
2022/03/25 10:25:39;;;;;;;14.20;9.33;;;;;;;18.58;33.03;102833.81;4976481;28;103551;-83
2022/03/25 10:28:44;;;;;;;17.60;10.17;;;;;;;18.56;33.17;102828.00;4963602;28;96983;-83
2022/03/25 10:31:15;;;;;;;16.77;10.43;;;;;;;18.58;34.06;102831.03;4963638;28;98985;-84
2022/03/25 10:33:49;;;;;;;15.97;10.90;;;;;;;18.71;34.39;102828.59;4967615;28;97358;-83
2022/03/25 10:36:19;;;;;;;15.07;9.97;;;;;;;18.84;34.48;102831.72;4964689;28;98480;-82
2022/03/25 10:38:57;;;;;;;20.30;12.63;;;;;;;18.94;33.79;102823.91;4965132;28;97019;-83
2022/03/25 10:41:37;;;;;;;16.57;11.77;;;;;;;18.99;33.29;102829.53;4962003;28;96962;-83
2022/03/25 10:44:03;;;;;;;17.70;11.80;;;;;;;19.05;34.11;102830.31;4965759;28;96982;-82
2022/03/25 10:46:34;;;;;;;17.77;12.30;;;;;;;19.02;32.72;102820.19;4967201;28;96772;-81
2022/03/25 10:49:04;;;;;;;21.57;14.70;;;;;;;19.01;33.86;102823.44;4965882;28;96917;-83
2022/03/25 10:51:29;;;;;;;27.30;14.50;;;;;;;19.04;33.80;102814.88;4965358;28;97044;-82
2022/03/25 10:54:14;;;;;;;23.60;13.97;;;;;;;19.20;33.81;102819.75;4967663;28;97953;-83
2022/03/25 10:56:54;;;;;;;18.80;13.10;;;;;;;19.35;33.01;102816.81;4966346;28;98760;-81
2022/03/25 10:59:37;;;;;;;18.90;11.87;;;;;;;19.50;32.69;102811.03;4961948;28;96848;-83
2022/03/25 11:02:06;;;;;;;21.00;13.03;;;;;;;19.65;33.65;102806.75;4976824;28;97294;-83
2022/03/25 11:04:32;;;;;;;20.07;12.37;;;;;;;19.83;33.33;102828.63;4961112;28;100060;-83
2022/03/25 11:06:58;;;;;;;16.53;10.70;;;;;;;19.98;33.36;102815.22;4966813;28;97373;-81
2022/03/25 11:09:27;;;;;;;18.77;11.17;;;;;;;20.08;33.05;102818.50;4966081;28;96909;-83
2022/03/25 11:11:53;;;;;;;15.70;10.80;;;;;;;20.31;33.00;102814.50;4967657;28;96982;-82
2022/03/25 11:14:22;;;;;;;23.17;14.43;;;;;;;20.31;32.11;102819.31;4967850;28;97757;-82
2022/03/25 11:16:57;;;;;;;19.17;12.90;;;;;;;20.45;31.56;102813.47;4965533;28;96864;-82
2022/03/25 11:19:23;;;;;;;23.00;14.17;;;;;;;20.60;32.08;102813.97;4976382;28;97050;-82
2022/03/25 11:21:50;;;;;;;20.90;13.47;;;;;;;20.80;32.48;102815.72;4964320;28;96995;-84
2022/03/25 11:24:38;;;;;;;23.30;12.60;;;;;;;21.11;31.40;102815.41;4981686;28;99855;-84
2022/03/25 11:27:09;;;;;;;26.10;17.00;;;;;;;21.21;31.26;102813.09;4966267;28;101367;-83
2022/03/25 11:29:36;;;;;;;18.50;13.43;;;;;;;21.12;31.45;102818.97;4964204;28;97750;-82
2022/03/25 11:32:11;;;;;;;23.80;15.00;;;;;;;21.28;30.61;102821.69;4970300;28;96981;-83